Tangail, Bangladesh
Current Conditions -  °F | °C
As of 6:50 PM on Friday 19 Dec 2014 (Local Time) from VGHS Reporting Station
Haze Haze  
Wind Chill: 70°   Ceiling: Unl
Heat Index: 70°   Visibility: 2.1mi
Dew Point: 57°   Wind: 0mph
Humidity: 64%   Direction: NA
Pressure: 30"   Gusts: NA
Location:  24.25°N, 89.92°E
Report Text: VGHS 191250Z 00000KT 3500 HZ NSC 21/14 Q1016 NOSIG
Loading
Personal Weather Stations






























Interactive Weather Map New forecast layout! Learn more

10-Day Weather Forecast

Advertisements
Track Severe Weather on mobile